createdAt,value
2023-05-17T00:01:47.524Z,1.52
2023-05-17T00:04:14.207Z,1.30
2023-05-17T00:06:41.188Z,1.60
2023-05-17T00:09:07.928Z,1.63
2023-05-17T00:11:34.823Z,1.33
2023-05-17T00:14:01.416Z,1.92
2023-05-17T00:16:28.007Z,1.70
2023-05-17T00:18:54.688Z,1.85
2023-05-17T00:21:21.572Z,2.00
2023-05-17T00:23:48.173Z,1.52
2023-05-17T00:26:14.830Z,1.70
2023-05-17T00:28:42.180Z,1.92
2023-05-17T00:31:08.747Z,1.70
2023-05-17T00:33:35.472Z,1.80
2023-05-17T00:36:02.063Z,2.03
2023-05-17T00:38:28.682Z,1.88
2023-05-17T00:40:55.370Z,1.55
2023-05-17T00:43:22.016Z,1.63
2023-05-17T00:45:50.157Z,1.83
2023-05-17T00:48:17.128Z,1.63
2023-05-17T00:50:44.334Z,1.83
2023-05-17T00:53:16.087Z,1.60
2023-05-17T00:55:44.160Z,1.88
2023-05-17T00:58:14.870Z,1.67
2023-05-17T01:00:42.041Z,2.17
2023-05-17T01:03:08.972Z,1.63
2023-05-17T01:05:36.207Z,1.80
2023-05-17T01:08:02.910Z,1.98
2023-05-17T01:11:01.515Z,1.42
2023-05-17T01:13:38.207Z,1.33
2023-05-17T01:16:16.492Z,1.70
2023-05-17T01:18:55.079Z,1.58
2023-05-17T01:21:40.289Z,1.42
2023-05-17T01:24:24.722Z,2.10
2023-05-17T01:26:54.022Z,2.00
2023-05-17T01:29:26.579Z,2.05
2023-05-17T01:31:56.917Z,1.65
2023-05-17T01:34:27.956Z,1.55
2023-05-17T01:36:54.786Z,1.48
2023-05-17T01:39:22.543Z,1.90
2023-05-17T01:42:07.880Z,2.10
2023-05-17T01:44:46.479Z,1.88
2023-05-17T01:47:19.714Z,1.80
2023-05-17T01:49:48.730Z,1.98
2023-05-17T01:52:29.817Z,2.22
2023-05-17T01:55:07.567Z,2.20
2023-05-17T01:57:38.993Z,1.90
2023-05-17T02:00:09.156Z,2.03
2023-05-17T02:02:41.685Z,2.10
2023-05-17T02:05:08.527Z,2.47
2023-05-17T02:07:35.360Z,2.28
2023-05-17T02:10:02.293Z,1.67
2023-05-17T02:12:28.885Z,2.03
2023-05-17T02:14:55.828Z,2.08
2023-05-17T02:17:22.850Z,1.63
2023-05-17T02:19:49.546Z,2.00
2023-05-17T02:22:16.184Z,2.35
2023-05-17T02:24:42.736Z,1.95
2023-05-17T02:27:09.480Z,2.05
2023-05-17T02:29:36.112Z,2.17
2023-05-17T02:32:02.801Z,2.00
2023-05-17T02:34:29.430Z,2.13
2023-05-17T02:36:56.048Z,1.95
2023-05-17T02:39:22.570Z,2.17
2023-05-17T02:41:49.197Z,2.13
2023-05-17T02:44:16.613Z,2.45
2023-05-17T02:46:43.260Z,2.20
2023-05-17T02:49:12.704Z,1.73
2023-05-17T02:51:39.355Z,3.35
2023-05-17T02:54:05.966Z,2.22
2023-05-17T02:56:32.958Z,2.08
2023-05-17T02:59:01.309Z,2.17
2023-05-17T03:01:28.364Z,2.53
2023-05-17T03:03:56.071Z,2.00
2023-05-17T03:06:22.882Z,2.00
2023-05-17T03:08:50.854Z,2.67
2023-05-17T03:11:17.463Z,2.75
2023-05-17T03:13:46.301Z,3.03
2023-05-17T03:16:13.038Z,2.65
2023-05-17T03:18:39.756Z,2.08
2023-05-17T03:21:07.163Z,3.35
2023-05-17T03:23:33.853Z,3.05
2023-05-17T03:26:02.537Z,2.80
2023-05-17T03:28:33.478Z,2.30
2023-05-17T03:31:00.624Z,2.25
2023-05-17T03:33:30.660Z,2.63
2023-05-17T03:35:57.522Z,3.15
2023-05-17T03:38:24.222Z,2.30
2023-05-17T03:40:52.051Z,3.00
2023-05-17T03:43:18.798Z,2.08
2023-05-17T03:45:46.415Z,2.10
2023-05-17T03:48:12.984Z,2.75
2023-05-17T03:50:41.012Z,2.28
2023-05-17T03:53:09.670Z,2.78
2023-05-17T03:55:36.406Z,2.47
2023-05-17T03:58:03.095Z,2.50
2023-05-17T04:00:29.886Z,2.65
2023-05-17T04:03:01.288Z,3.05
2023-05-17T04:05:28.132Z,2.33
2023-05-17T04:07:55.320Z,3.22
2023-05-17T04:10:22.509Z,2.53
2023-05-17T04:12:49.815Z,2.65
2023-05-17T04:15:16.498Z,2.08
2023-05-17T04:17:43.745Z,2.35
2023-05-17T04:20:11.120Z,3.08
2023-05-17T04:22:39.133Z,2.70
2023-05-17T04:25:06.500Z,3.15
2023-05-17T04:27:33.442Z,3.25
2023-05-17T04:30:00.519Z,3.00
2023-05-17T04:32:27.911Z,3.15
2023-05-17T04:34:56.199Z,2.90
2023-05-17T04:37:23.473Z,2.33
2023-05-17T04:39:53.890Z,2.80
2023-05-17T04:42:21.349Z,3.03
2023-05-17T04:44:53.434Z,2.47
2023-05-17T04:47:20.007Z,2.65
2023-05-17T04:49:46.591Z,2.88
2023-05-17T04:52:13.153Z,2.45
2023-05-17T04:54:40.576Z,2.70
2023-05-17T04:57:07.129Z,2.42
2023-05-17T05:00:07.261Z,2.88
2023-05-17T05:02:34.872Z,2.55
2023-05-17T05:05:04.805Z,2.80
2023-05-17T05:07:31.817Z,2.95
2023-05-17T05:09:58.431Z,3.25
2023-05-17T05:12:25.405Z,3.05
2023-05-17T05:14:51.945Z,2.75
2023-05-17T05:17:18.852Z,3.35
2023-05-17T05:19:46.605Z,3.22
2023-05-17T05:22:13.314Z,2.95
2023-05-17T05:24:41.097Z,2.83
2023-05-17T05:27:07.741Z,3.13
2023-05-17T05:29:35.691Z,2.88
2023-05-17T05:32:02.765Z,3.28
2023-05-17T05:34:31.530Z,3.25
2023-05-17T05:36:58.200Z,3.28
2023-05-17T05:39:24.891Z,3.42
2023-05-17T05:41:51.997Z,2.97
2023-05-17T05:44:19.337Z,2.90
2023-05-17T05:46:46.496Z,3.33
2023-05-17T05:49:13.965Z,2.92
2023-05-17T05:51:40.603Z,2.75
2023-05-17T05:54:07.252Z,3.20
2023-05-17T05:56:33.963Z,2.70
2023-05-17T05:59:00.509Z,2.03
2023-05-17T06:01:28.839Z,2.38
2023-05-17T06:03:55.768Z,2.10
2023-05-17T06:06:22.448Z,2.35
2023-05-17T06:08:49.105Z,2.28
2023-05-17T06:11:15.703Z,1.83
2023-05-17T06:13:42.289Z,2.75
2023-05-17T06:16:08.917Z,2.13
2023-05-17T06:18:35.759Z,2.13
2023-05-17T06:21:02.431Z,1.67
2023-05-17T06:23:28.998Z,1.95
2023-05-17T06:25:55.768Z,2.08
2023-05-17T06:28:22.392Z,2.38
2023-05-17T06:30:49.011Z,2.30
2023-05-17T06:33:15.738Z,2.70
2023-05-17T06:35:54.963Z,2.25
2023-05-17T06:38:23.582Z,2.28
2023-05-17T06:40:54.208Z,2.20
2023-05-17T06:43:21.354Z,1.75
2023-05-17T06:45:47.945Z,2.05
2023-05-17T06:48:15.528Z,1.90
2023-05-17T06:50:42.269Z,2.17
2023-05-17T06:53:09.126Z,1.50
2023-05-17T06:55:35.964Z,1.55
2023-05-17T06:58:02.617Z,1.52
2023-05-17T07:00:32.455Z,1.88
2023-05-17T07:03:00.220Z,1.80
2023-05-17T07:05:29.035Z,1.38
2023-05-17T07:07:56.630Z,1.45
2023-05-17T07:10:23.177Z,1.50
2023-05-17T07:12:49.827Z,1.50
2023-05-17T07:15:18.435Z,1.85
2023-05-17T07:17:45.066Z,1.92
2023-05-17T07:20:12.737Z,2.00
2023-05-17T07:22:39.438Z,1.30
2023-05-17T07:25:06.763Z,1.55
2023-05-17T07:27:33.363Z,1.25
2023-05-17T07:30:01.064Z,1.33
2023-05-17T07:32:27.690Z,0.93
2023-05-17T07:34:54.527Z,0.88
2023-05-17T07:37:21.147Z,0.98
2023-05-17T07:39:47.834Z,1.88
2023-05-17T07:42:14.716Z,1.48
2023-05-17T07:44:42.582Z,1.17
2023-05-17T07:47:09.243Z,1.05
2023-05-17T07:49:35.873Z,1.63
2023-05-17T07:52:03.027Z,1.25
2023-05-17T07:54:30.900Z,1.23
2023-05-17T07:56:57.630Z,1.38
2023-05-17T07:59:24.634Z,1.88
2023-05-17T08:01:52.144Z,1.15
2023-05-17T08:04:21.734Z,1.27
2023-05-17T08:06:49.944Z,1.10
2023-05-17T08:09:16.862Z,1.25
2023-05-17T08:11:46.390Z,1.50
2023-05-17T08:14:16.668Z,1.30
2023-05-17T08:16:45.124Z,3.22
2023-05-17T08:19:13.371Z,1.23
2023-05-17T08:21:41.848Z,0.90
2023-05-17T08:24:08.962Z,1.00
2023-05-17T08:26:35.869Z,1.15
2023-05-17T08:33:34.927Z,1.38
2023-05-17T08:36:02.873Z,1.17
2023-05-17T08:38:29.413Z,1.67
2023-05-17T08:40:56.809Z,1.60
2023-05-17T08:43:26.020Z,1.25
2023-05-17T08:45:57.549Z,1.33
2023-05-17T08:48:31.070Z,1.45
2023-05-17T08:50:58.041Z,1.58
2023-05-17T08:53:25.524Z,1.00
2023-05-17T08:55:58.874Z,1.27
2023-05-17T08:58:32.584Z,1.17
2023-05-17T09:01:07.363Z,1.35
2023-05-17T09:03:35.650Z,1.40
2023-05-17T09:06:03.551Z,1.38
2023-05-17T09:08:32.849Z,0.80
2023-05-17T09:10:59.528Z,1.45
2023-05-17T09:13:26.727Z,0.90
2023-05-17T09:15:54.390Z,1.63
2023-05-17T09:18:32.654Z,1.20
2023-05-17T09:21:06.248Z,1.02
2023-05-17T09:23:33.849Z,1.48
2023-05-17T09:26:10.434Z,1.67
2023-05-17T09:28:39.490Z,1.45
2023-05-17T09:31:10.591Z,1.55
2023-05-17T09:33:48.138Z,1.45
2023-05-17T09:36:22.455Z,1.25
2023-05-17T09:38:58.589Z,1.35
2023-05-17T09:41:30.659Z,1.17
2023-05-17T09:44:02.250Z,1.30
2023-05-17T09:46:34.782Z,1.50
2023-05-17T09:49:03.275Z,1.63
2023-05-17T09:51:37.147Z,1.20
2023-05-17T09:54:03.958Z,1.60
2023-05-17T09:56:31.243Z,1.08
2023-05-17T09:59:01.155Z,1.02
2023-05-17T10:01:29.173Z,1.55
2023-05-17T10:03:59.172Z,1.33
2023-05-17T10:06:39.018Z,1.50
2023-05-17T10:09:14.303Z,2.40
2023-05-17T10:11:44.193Z,1.67
2023-05-17T10:14:22.788Z,1.20
2023-05-17T10:16:51.675Z,1.25
2023-05-17T10:19:20.833Z,1.40
2023-05-17T10:21:48.509Z,1.38
2023-05-17T10:24:16.383Z,1.40
2023-05-17T10:26:43.484Z,1.15
2023-05-17T10:29:10.810Z,0.98
2023-05-17T10:31:37.592Z,1.25
2023-05-17T10:34:06.600Z,1.23
2023-05-17T10:36:34.128Z,1.38
2023-05-17T10:39:01.888Z,1.10
2023-05-17T10:41:33.671Z,1.45
2023-05-17T10:44:03.140Z,1.80
2023-05-17T10:46:30.777Z,1.13
2023-05-17T10:49:01.438Z,1.08
2023-05-17T10:51:39.338Z,0.98
2023-05-17T10:54:18.399Z,1.30
2023-05-17T10:56:52.831Z,1.55
2023-05-17T10:59:28.104Z,1.50
2023-05-17T11:02:10.189Z,0.88
2023-05-17T11:04:39.835Z,1.67
2023-05-17T11:07:20.139Z,1.40
2023-05-17T11:09:50.610Z,1.00
2023-05-17T11:12:37.334Z,1.20
2023-05-17T11:15:08.453Z,1.23
2023-05-17T11:17:57.447Z,1.40
2023-05-17T11:20:24.187Z,1.00
2023-05-17T11:22:58.625Z,1.02
2023-05-17T11:25:29.862Z,1.25
2023-05-17T11:27:58.481Z,1.15
2023-05-17T11:30:26.751Z,1.33
2023-05-17T11:32:57.768Z,1.00
2023-05-17T11:35:28.131Z,1.17
2023-05-17T11:38:13.926Z,0.93
2023-05-17T11:43:13.995Z,0.65
2023-05-17T11:45:46.374Z,1.58
2023-05-17T11:48:13.513Z,1.10
2023-05-17T11:50:42.422Z,0.98
2023-05-17T11:53:10.310Z,1.80
2023-05-17T11:55:41.949Z,1.33
2023-05-17T11:58:10.521Z,1.35
2023-05-17T12:00:41.934Z,1.20
2023-05-17T12:03:35.137Z,1.13
2023-05-17T12:06:09.413Z,1.20
2023-05-17T12:08:38.626Z,1.00
2023-05-17T12:11:06.710Z,1.08
2023-05-17T12:13:35.133Z,1.23
2023-05-17T12:16:05.880Z,1.38
2023-05-17T12:18:40.020Z,1.02
2023-05-17T12:21:08.978Z,1.65
2023-05-17T12:23:41.142Z,0.88
2023-05-17T12:26:12.721Z,1.00
2023-05-17T12:28:41.630Z,1.42
2023-05-17T12:31:12.002Z,1.55
2023-05-17T12:33:41.565Z,1.40
2023-05-17T12:36:11.049Z,1.10
2023-05-17T12:38:40.651Z,1.42
2023-05-17T12:41:10.511Z,1.05
2023-05-17T12:43:38.956Z,1.02
2023-05-17T12:46:07.749Z,1.23
2023-05-17T12:48:40.420Z,1.10
2023-05-17T12:51:12.297Z,1.08
2023-05-17T12:54:06.127Z,0.93
2023-05-17T12:56:32.885Z,1.52
2023-05-17T12:59:12.078Z,1.00
2023-05-17T13:01:49.838Z,1.10
2023-05-17T13:04:18.000Z,1.27
2023-05-17T13:06:54.603Z,1.15
2023-05-17T13:09:23.897Z,1.08
2023-05-17T13:11:51.056Z,0.82
2023-05-17T13:14:43.462Z,1.52
2023-05-17T13:17:15.395Z,1.15
2023-05-17T13:19:42.628Z,1.10
2023-05-17T13:22:10.077Z,1.10
2023-05-17T13:24:38.294Z,1.35
2023-05-17T13:27:06.023Z,1.10
2023-05-17T13:29:40.188Z,1.52
2023-05-17T13:32:08.688Z,1.00
2023-05-17T13:34:35.553Z,1.75
2023-05-17T13:37:02.241Z,1.25
2023-05-17T13:39:28.996Z,0.90
2023-05-17T13:41:55.682Z,1.60
2023-05-17T13:44:22.350Z,1.80
2023-05-17T13:46:49.023Z,1.23
2023-05-17T13:49:15.715Z,1.10
2023-05-17T13:51:42.857Z,1.50
2023-05-17T13:54:10.589Z,1.35
2023-05-17T13:56:37.581Z,1.33
2023-05-17T13:59:04.240Z,1.35
2023-05-17T14:01:30.935Z,1.85
2023-05-17T14:03:57.595Z,1.33
2023-05-17T14:06:24.510Z,1.48
2023-05-17T14:08:53.067Z,1.42
2023-05-17T14:11:19.850Z,1.55
2023-05-17T14:13:46.418Z,1.20
2023-05-17T14:16:14.277Z,1.70
2023-05-17T14:18:41.139Z,1.20
2023-05-17T14:21:08.211Z,1.92
2023-05-17T14:23:35.469Z,1.80
2023-05-17T14:26:05.006Z,1.55
2023-05-17T14:28:31.840Z,1.85
2023-05-17T14:30:58.545Z,1.20
2023-05-17T14:33:26.841Z,1.23
2023-05-17T14:35:53.673Z,1.65
2023-05-17T14:38:22.278Z,1.77
2023-05-17T14:40:49.022Z,2.28
2023-05-17T14:43:16.267Z,1.65
2023-05-17T14:45:42.867Z,2.00
2023-05-17T14:48:09.620Z,1.70
2023-05-17T14:50:36.368Z,1.25
2023-05-17T14:53:03.045Z,2.05
2023-05-17T14:55:30.101Z,1.48
2023-05-17T14:57:57.853Z,2.08
2023-05-17T15:00:25.290Z,1.70
2023-05-17T15:02:51.843Z,1.75
2023-05-17T15:05:18.613Z,1.48
2023-05-17T15:07:45.228Z,1.50
2023-05-17T15:10:12.963Z,1.83
2023-05-17T15:12:39.978Z,1.55
2023-05-17T15:15:07.154Z,1.40
2023-05-17T15:17:33.745Z,1.23
2023-05-17T15:20:00.532Z,2.00
2023-05-17T15:22:27.153Z,1.33
2023-05-17T15:24:54.298Z,1.88
2023-05-17T15:27:20.974Z,1.48
2023-05-17T15:29:47.566Z,1.27
2023-05-17T15:32:14.199Z,1.88
2023-05-17T15:34:41.297Z,1.83
2023-05-17T15:37:07.843Z,2.17
2023-05-17T15:39:34.546Z,2.30
2023-05-17T15:42:01.414Z,1.92
2023-05-17T15:44:27.970Z,1.90
2023-05-17T15:46:54.527Z,1.40
2023-05-17T15:49:21.235Z,1.75
2023-05-17T15:51:47.976Z,1.65
2023-05-17T15:54:14.939Z,1.85
2023-05-17T15:56:41.934Z,1.92
2023-05-17T15:59:08.666Z,1.80
2023-05-17T16:01:35.517Z,1.35
2023-05-17T16:04:02.292Z,1.60
2023-05-17T16:06:34.710Z,2.03
2023-05-17T16:09:02.932Z,1.65
2023-05-17T16:11:29.504Z,2.05
2023-05-17T16:13:57.106Z,1.73
2023-05-17T16:16:23.845Z,1.65
2023-05-17T16:18:50.703Z,1.45
2023-05-17T16:21:17.334Z,1.50
2023-05-17T16:23:43.953Z,1.40
2023-05-17T16:26:10.730Z,1.40
2023-05-17T16:28:37.377Z,1.30
2023-05-17T16:31:05.526Z,1.40
2023-05-17T16:33:32.261Z,2.00
2023-05-17T16:35:59.254Z,1.85
2023-05-17T16:38:26.188Z,1.40
2023-05-17T16:40:52.770Z,1.38
2023-05-17T16:43:19.402Z,1.73
2023-05-17T16:45:46.324Z,1.75
2023-05-17T16:48:14.405Z,1.73
2023-05-17T16:50:41.982Z,1.90
2023-05-17T16:53:08.629Z,1.45
2023-05-17T16:55:36.223Z,1.25
2023-05-17T16:58:03.139Z,1.75
2023-05-17T17:00:29.991Z,2.30
2023-05-17T17:02:58.890Z,1.30
2023-05-17T17:05:26.507Z,1.52
2023-05-17T17:07:53.618Z,1.77
2023-05-17T17:10:20.934Z,1.77
2023-05-17T17:12:49.682Z,1.85
2023-05-17T17:15:16.675Z,1.58
2023-05-17T17:17:44.937Z,1.55
2023-05-17T17:20:12.235Z,1.83
2023-05-17T17:22:39.086Z,1.80
2023-05-17T17:25:07.385Z,1.63
2023-05-17T17:27:34.761Z,1.52
2023-05-17T17:30:01.938Z,1.48
2023-05-17T17:32:28.657Z,1.92
2023-05-17T17:34:55.284Z,1.42
2023-05-17T17:37:21.900Z,1.50
2023-05-17T17:39:48.431Z,1.10
2023-05-17T17:42:15.014Z,2.05
2023-05-17T17:44:41.558Z,1.20
2023-05-17T17:47:08.194Z,1.67
2023-05-17T17:49:35.984Z,1.65
2023-05-17T17:52:03.450Z,1.10
2023-05-17T17:54:30.050Z,1.45
2023-05-17T17:56:56.642Z,1.25
2023-05-17T17:59:23.241Z,1.15
2023-05-17T18:01:49.989Z,1.33
2023-05-17T18:04:16.721Z,1.30
2023-05-17T18:06:45.621Z,1.48
2023-05-17T18:09:12.178Z,1.73
2023-05-17T18:11:38.791Z,1.60
2023-05-17T18:14:06.148Z,1.67
2023-05-17T18:16:33.006Z,0.98
2023-05-17T18:19:00.680Z,0.95
2023-05-17T18:21:29.220Z,1.40
2023-05-17T18:23:55.879Z,1.17
2023-05-17T18:26:23.153Z,1.45
2023-05-17T18:28:50.252Z,1.02
2023-05-17T18:31:18.264Z,1.05
2023-05-17T18:33:45.306Z,1.35
2023-05-17T18:36:12.002Z,1.60
2023-05-17T18:38:38.569Z,1.02
2023-05-17T18:41:05.267Z,1.63
2023-05-17T18:43:31.889Z,1.27
2023-05-17T18:45:58.483Z,1.48
2023-05-17T18:48:25.176Z,1.45
2023-05-17T18:50:51.908Z,1.42
2023-05-17T18:53:18.506Z,2.05
2023-05-17T18:55:45.196Z,1.27
2023-05-17T18:58:11.714Z,1.45
2023-05-17T19:00:38.347Z,0.90
2023-05-17T19:03:05.049Z,1.85
2023-05-17T19:05:31.707Z,1.80
2023-05-17T19:07:58.363Z,1.33
2023-05-17T19:10:24.959Z,1.38
2023-05-17T19:12:51.598Z,1.40
2023-05-17T19:15:19.513Z,1.27
2023-05-17T19:17:46.124Z,1.40
2023-05-17T19:20:13.050Z,1.52
2023-05-17T19:22:39.633Z,2.08
2023-05-17T19:25:06.809Z,1.30
2023-05-17T19:27:33.409Z,1.55
2023-05-17T19:29:59.988Z,1.48
2023-05-17T19:32:26.909Z,1.05
2023-05-17T19:34:54.764Z,1.23
2023-05-17T19:37:21.348Z,1.58
2023-05-17T19:39:47.891Z,1.00
2023-05-17T19:42:14.472Z,1.10
2023-05-17T19:44:41.113Z,1.25
2023-05-17T19:47:07.671Z,1.45
2023-05-17T19:49:34.245Z,1.20
2023-05-17T19:52:01.133Z,1.38
2023-05-17T19:54:29.184Z,1.40
2023-05-17T19:56:56.967Z,1.75
2023-05-17T19:59:23.769Z,1.15
2023-05-17T20:01:50.827Z,1.00
2023-05-17T20:04:17.538Z,1.40
2023-05-17T20:06:44.494Z,1.00
2023-05-17T20:09:11.164Z,1.30
2023-05-17T20:11:37.991Z,1.45
2023-05-17T20:14:04.662Z,1.27
2023-05-17T20:16:31.383Z,1.73
2023-05-17T20:18:58.331Z,1.23
2023-05-17T20:21:26.164Z,1.38
2023-05-17T20:24:00.457Z,1.38
2023-05-17T20:26:31.334Z,1.10
2023-05-17T20:28:58.888Z,1.45
2023-05-17T20:31:25.641Z,1.85
2023-05-17T20:33:52.862Z,1.50
2023-05-17T20:36:19.476Z,1.67
2023-05-17T20:38:46.364Z,1.23
2023-05-17T20:41:14.678Z,1.13
2023-05-17T20:43:46.598Z,1.30
2023-05-17T20:46:13.581Z,2.30
2023-05-17T20:48:43.089Z,0.90
2023-05-17T20:51:10.239Z,1.70
2023-05-17T20:53:37.335Z,1.30
2023-05-17T20:56:04.447Z,1.23
2023-05-17T20:58:31.375Z,1.50
2023-05-17T21:00:58.613Z,1.30
2023-05-17T21:03:28.140Z,1.30
2023-05-17T21:05:55.604Z,1.17
2023-05-17T21:08:22.691Z,1.15
2023-05-17T21:10:49.865Z,1.50
2023-05-17T21:13:16.534Z,1.73
2023-05-17T21:15:43.525Z,1.60
2023-05-17T21:18:11.181Z,1.30
2023-05-17T21:20:38.589Z,1.05
2023-05-17T21:23:05.230Z,1.13
2023-05-17T21:25:32.160Z,1.30
2023-05-17T21:27:58.849Z,1.10
2023-05-17T21:30:25.798Z,1.17
2023-05-17T21:32:52.363Z,1.20
2023-05-17T21:35:18.974Z,1.13
2023-05-17T21:37:45.547Z,1.30
2023-05-17T21:40:12.274Z,1.25
2023-05-17T21:42:38.903Z,1.13
2023-05-17T21:45:06.190Z,1.02
2023-05-17T21:47:32.860Z,1.25
2023-05-17T21:49:59.515Z,1.02
2023-05-17T21:52:26.137Z,1.15
2023-05-17T21:54:52.764Z,1.65
2023-05-17T21:57:20.926Z,1.40
2023-05-17T21:59:48.971Z,1.70
2023-05-17T22:02:15.732Z,1.13
2023-05-17T22:04:42.433Z,1.50
2023-05-17T22:07:10.862Z,1.58
2023-05-17T22:09:38.042Z,1.27
2023-05-17T22:12:08.256Z,0.93
2023-05-17T22:14:36.271Z,1.65
2023-05-17T22:17:08.265Z,1.50
2023-05-17T22:19:40.535Z,2.22
2023-05-17T22:22:08.460Z,1.63
2023-05-17T22:24:35.383Z,1.40
2023-05-17T22:27:02.594Z,1.42
2023-05-17T22:29:29.346Z,1.85
2023-05-17T22:31:56.053Z,1.27
2023-05-17T22:34:22.895Z,1.55
2023-05-17T22:36:49.457Z,1.20
2023-05-17T22:39:16.080Z,1.13
2023-05-17T22:41:42.690Z,1.20
2023-05-17T22:44:09.307Z,1.42
2023-05-17T22:46:37.856Z,1.20
2023-05-17T22:49:04.452Z,1.73
2023-05-17T22:51:34.973Z,1.50
2023-05-17T22:54:03.213Z,1.40
2023-05-17T22:56:30.094Z,1.50
2023-05-17T22:58:56.756Z,1.63
2023-05-17T23:01:23.384Z,1.48
2023-05-17T23:03:50.085Z,1.20
2023-05-17T23:06:16.662Z,1.70
2023-05-17T23:08:43.281Z,1.50
2023-05-17T23:11:09.837Z,1.70
2023-05-17T23:13:36.403Z,1.85
2023-05-17T23:16:04.125Z,1.33
2023-05-17T23:18:30.993Z,1.38
2023-05-17T23:20:58.874Z,1.83
2023-05-17T23:23:25.936Z,1.85
2023-05-17T23:25:52.518Z,2.30
2023-05-17T23:28:19.302Z,1.80
2023-05-17T23:30:48.497Z,1.58
2023-05-17T23:33:15.438Z,1.95
2023-05-17T23:35:42.032Z,1.25
2023-05-17T23:38:08.670Z,1.92
2023-05-17T23:40:36.951Z,1.13
2023-05-17T23:43:04.205Z,1.77
2023-05-17T23:45:30.989Z,1.85
2023-05-17T23:48:01.008Z,1.35
2023-05-17T23:50:27.746Z,1.55
2023-05-17T23:52:54.355Z,1.30
2023-05-17T23:55:22.511Z,1.50
2023-05-17T23:57:49.360Z,1.35
